الصفحة الرئيسية
METAR-TAF:

METAR-TAF

مطار :

Clayton, نيومكسيكو, الولايات المتحدة

دائرة عرض: 36-26-54N, خط طول: 103-09-11W, ارتفاع: 1513 متر

مراقبة الطقس الحالي

تاريخ ووقت الإصدار 24 دقيقة قبل الساعة 22:55UTC
ريح 12 عقدة من الجنوب
درجة الحرارة 27°درجة مئوية
الرطوبة 18%
ضغط 1021 hPa
الرؤية: 16.1 كم
سماء صافية

METAR: KCAO 222255Z AUTO 18012KT 10SM CLR 27/01 A3014 RMK AO2 SLP156 T02670006

زمن: 17:19 (23:19 UTC)


TAF: مفقودة

أرصاد الطقس والتوقعات من أكثر من 4000 مطار (تقارير الطقس للمطار METAR والتنبؤ بالطقس بالمطارTAF).

المحطات المتاحة هي النقط الصفراء والحمراء على الخريطة.

حرك المؤشر فوق النقطة لمعرفة اسم المحطة.

ثم انقر لمعرفة أرصاد وتوقعات الطقس.

لتغيير الخارطة: اضغط على الأزرار الخضراء مع رمز الصليب الأسود للتكبير. على الزر الأخضر مع شرطة للتصغير، أو على الأسهم الخضراء للخرائط المجاورة.


METAR-TAF: